createdAt,value
2024-02-04T00:00:04.854Z,100279.53
2024-02-04T00:02:30.906Z,100278.22
2024-02-04T00:04:56.684Z,100283.97
2024-02-04T00:07:22.836Z,100282.34
2024-02-04T00:09:48.869Z,100290.84
2024-02-04T00:12:14.694Z,100290.63
2024-02-04T00:14:40.465Z,100287.94
2024-02-04T00:17:06.150Z,100291.09
2024-02-04T00:19:32.151Z,100291.44
2024-02-04T00:21:57.977Z,100283.50
2024-02-04T00:24:24.511Z,100290.38
2024-02-04T00:26:50.751Z,100292.03
2024-02-04T00:29:16.555Z,100303.25
2024-02-04T00:31:42.319Z,100291.00
2024-02-04T00:34:08.227Z,100297.69
2024-02-04T00:36:34.028Z,100296.03
2024-02-04T00:38:59.714Z,100302.13
2024-02-04T00:41:26.128Z,100301.84
2024-02-04T00:43:52.584Z,100299.75
2024-02-04T00:46:18.323Z,100307.97
2024-02-04T00:48:44.183Z,100290.38
2024-02-04T00:51:09.981Z,100290.16
2024-02-04T00:53:35.833Z,100288.19
2024-02-04T00:56:05.368Z,100285.72
2024-02-04T00:58:31.316Z,100273.78
2024-02-04T01:00:57.315Z,100270.50
2024-02-04T01:03:23.246Z,100277.75
2024-02-04T01:05:49.071Z,100287.09
2024-02-04T01:08:14.841Z,100282.19
2024-02-04T01:10:40.492Z,100287.44
2024-02-04T01:13:06.370Z,100295.06
2024-02-04T01:15:32.262Z,100292.84
2024-02-04T01:17:57.982Z,100288.84
2024-02-04T01:20:23.799Z,100291.22
2024-02-04T01:22:49.470Z,100286.50
2024-02-04T01:25:15.547Z,100288.75
2024-02-04T01:27:41.416Z,100293.91
2024-02-04T01:30:07.793Z,100288.41
2024-02-04T01:32:33.532Z,100282.19
2024-02-04T01:34:59.333Z,100284.19
2024-02-04T01:37:25.096Z,100275.84
2024-02-04T01:39:50.884Z,100275.03
2024-02-04T01:42:16.606Z,100272.81
2024-02-04T01:44:43.213Z,100281.94
2024-02-04T01:47:09.356Z,100261.09
2024-02-04T01:49:35.613Z,100263.53
2024-02-04T01:52:02.699Z,100254.84
2024-02-04T01:54:28.689Z,100254.63
2024-02-04T01:56:56.094Z,100245.13
2024-02-04T01:59:29.576Z,100254.00
2024-02-04T02:01:55.860Z,100235.97
2024-02-04T02:04:22.517Z,100225.66
2024-02-04T02:06:49.230Z,100226.59
2024-02-04T02:09:15.204Z,100225.09
2024-02-04T02:11:52.893Z,100224.50
2024-02-04T02:14:24.264Z,100222.63
2024-02-04T02:16:50.081Z,100222.88
2024-02-04T02:19:29.290Z,100226.16
2024-02-04T02:22:08.088Z,100221.25
2024-02-04T02:24:43.168Z,100220.69
2024-02-04T02:27:09.043Z,100218.41
2024-02-04T02:29:35.216Z,100211.97
2024-02-04T02:32:02.464Z,100210.78
2024-02-04T02:34:35.460Z,100210.44
2024-02-04T02:37:22.659Z,100209.66
2024-02-04T02:39:58.039Z,100210.66
2024-02-04T02:42:25.058Z,100205.63
2024-02-04T02:44:51.798Z,100209.94
2024-02-04T02:47:18.953Z,100203.22
2024-02-04T02:49:45.101Z,100201.25
2024-02-04T02:52:10.894Z,100208.72
2024-02-04T02:54:36.670Z,100211.75
2024-02-04T02:57:02.492Z,100212.09
2024-02-04T02:59:28.332Z,100212.34
2024-02-04T03:01:54.143Z,100207.34
2024-02-04T03:04:19.955Z,100211.78
2024-02-04T03:06:45.774Z,100210.84
2024-02-04T03:09:11.606Z,100209.78
2024-02-04T03:11:38.975Z,100215.38
2024-02-04T03:14:04.687Z,100218.28
2024-02-04T03:16:30.351Z,100221.50
2024-02-04T03:18:56.078Z,100212.84
2024-02-04T03:21:22.086Z,100212.03
2024-02-04T03:23:47.823Z,100213.44
2024-02-04T03:26:20.099Z,100215.88
2024-02-04T03:28:46.033Z,100209.75
2024-02-04T03:31:11.749Z,100209.50
2024-02-04T03:33:37.622Z,100200.16
2024-02-04T03:36:03.424Z,100200.59
2024-02-04T03:38:29.147Z,100207.94
2024-02-04T03:40:55.996Z,100212.13
2024-02-04T03:43:21.668Z,100207.56
2024-02-04T03:45:47.471Z,100217.28
2024-02-04T03:48:13.254Z,100219.75
2024-02-04T03:50:39.239Z,100209.31
2024-02-04T03:53:05.063Z,100209.06
2024-02-04T03:55:30.821Z,100205.00
2024-02-04T03:57:58.466Z,100210.00
2024-02-04T04:00:24.226Z,100211.31
2024-02-04T04:02:50.070Z,100200.03
2024-02-04T04:05:15.820Z,100204.38
2024-02-04T04:07:42.213Z,100187.16
2024-02-04T04:10:08.350Z,100185.66
2024-02-04T04:12:34.176Z,100189.75
2024-02-04T04:14:59.867Z,100190.56
2024-02-04T04:17:25.601Z,100190.31
2024-02-04T04:19:51.419Z,100182.28
2024-02-04T04:22:17.287Z,100180.25
2024-02-04T04:24:43.009Z,100185.38
2024-02-04T04:27:08.700Z,100183.88
2024-02-04T04:29:34.543Z,100190.16
2024-02-04T04:32:00.207Z,100191.66
2024-02-04T04:34:25.875Z,100176.72
2024-02-04T04:36:51.607Z,100178.34
2024-02-04T04:39:17.339Z,100180.81
2024-02-04T04:41:44.793Z,100171.47
2024-02-04T04:44:10.559Z,100178.94
2024-02-04T04:46:39.705Z,100177.31
2024-02-04T04:49:05.859Z,100179.50
2024-02-04T04:51:31.869Z,100181.72
2024-02-04T04:53:57.555Z,100186.09
2024-02-04T04:56:23.254Z,100191.38
2024-02-04T04:58:49.521Z,100192.22
2024-02-04T05:01:15.281Z,100196.88
2024-02-04T05:03:41.619Z,100176.75
2024-02-04T05:06:07.376Z,100185.75
2024-02-04T05:08:33.085Z,100184.22
2024-02-04T05:10:58.759Z,100174.72
2024-02-04T05:13:24.536Z,100180.97
2024-02-04T05:15:50.204Z,100180.28
2024-02-04T05:18:16.032Z,100189.66
2024-02-04T05:20:41.872Z,100199.19
2024-02-04T05:23:07.545Z,100196.06
2024-02-04T05:25:33.500Z,100199.84
2024-02-04T05:27:59.197Z,100193.00
2024-02-04T05:30:24.978Z,100188.41
2024-02-04T05:32:50.947Z,100193.16
2024-02-04T05:35:16.759Z,100188.69
2024-02-04T05:37:42.513Z,100182.44
2024-02-04T05:40:08.867Z,100175.53
2024-02-04T05:42:36.344Z,100174.69
2024-02-04T05:45:02.110Z,100168.31
2024-02-04T05:47:27.847Z,100176.38
2024-02-04T05:49:53.745Z,100180.00
2024-02-04T05:52:19.515Z,100170.94
2024-02-04T05:54:45.906Z,100186.44
2024-02-04T05:57:13.068Z,100189.13
2024-02-04T05:59:40.086Z,100179.91
2024-02-04T06:02:05.956Z,100179.09
2024-02-04T06:04:31.792Z,100175.31
2024-02-04T06:06:57.790Z,100193.53
2024-02-04T06:09:23.614Z,100189.56
2024-02-04T06:11:49.409Z,100185.63
2024-02-04T06:14:15.094Z,100169.03
2024-02-04T06:16:40.815Z,100169.31
2024-02-04T06:19:06.944Z,100178.53
2024-02-04T06:21:32.794Z,100179.75
2024-02-04T06:23:58.552Z,100186.41
2024-02-04T06:26:25.161Z,100200.56
2024-02-04T06:28:52.459Z,100200.16
2024-02-04T06:31:19.558Z,100196.34
2024-02-04T06:33:45.613Z,100198.91
2024-02-04T06:36:11.886Z,100198.66
2024-02-04T06:38:38.392Z,100206.13
2024-02-04T06:41:04.336Z,100206.13
2024-02-04T06:43:30.253Z,100205.84
2024-02-04T06:45:56.372Z,100204.63
2024-02-04T06:48:22.285Z,100205.94
2024-02-04T06:50:49.171Z,100201.44
2024-02-04T06:53:15.649Z,100188.41
2024-02-04T06:55:41.759Z,100180.38
2024-02-04T06:58:07.556Z,100186.06
2024-02-04T07:00:33.467Z,100187.13
2024-02-04T07:02:59.347Z,100183.06
2024-02-04T07:05:26.604Z,100184.13
2024-02-04T07:07:53.464Z,100190.63
2024-02-04T07:10:20.189Z,100185.72
2024-02-04T07:12:46.221Z,100199.84
2024-02-04T07:15:12.152Z,100198.34
2024-02-04T07:17:38.396Z,100191.09
2024-02-04T07:20:05.125Z,100201.66
2024-02-04T07:22:31.344Z,100206.31
2024-02-04T07:24:57.856Z,100204.50
2024-02-04T07:27:24.202Z,100207.44
2024-02-04T07:29:50.353Z,100200.06
2024-02-04T07:32:17.077Z,100206.13
2024-02-04T07:34:43.406Z,100191.53
2024-02-04T07:37:10.070Z,100194.66
2024-02-04T07:39:36.429Z,100190.94
2024-02-04T07:42:02.721Z,100182.13
2024-02-04T07:44:30.405Z,100184.97
2024-02-04T07:46:56.818Z,100187.91
2024-02-04T07:49:23.226Z,100188.72
2024-02-04T07:51:49.319Z,100191.25
2024-02-04T07:54:15.085Z,100201.75
2024-02-04T07:56:40.764Z,100213.72
2024-02-04T07:59:06.440Z,100207.31
2024-02-04T08:01:32.306Z,100220.56
2024-02-04T08:03:58.371Z,100214.50
2024-02-04T08:06:24.194Z,100218.25
2024-02-04T08:08:51.922Z,100218.44
2024-02-04T08:11:19.191Z,100221.06
2024-02-04T08:13:45.420Z,100235.72
2024-02-04T08:16:12.044Z,100223.38
2024-02-04T08:18:38.146Z,100222.41
2024-02-04T08:21:04.695Z,100217.09
2024-02-04T08:23:30.570Z,100218.13
2024-02-04T08:25:57.943Z,100220.66
2024-02-04T08:28:25.004Z,100217.22
2024-02-04T08:30:51.151Z,100198.72
2024-02-04T08:33:16.998Z,100200.28
2024-02-04T08:35:42.732Z,100191.84
2024-02-04T08:38:08.430Z,100196.06
2024-02-04T08:40:34.134Z,100196.63
2024-02-04T08:42:59.974Z,100187.34
2024-02-04T08:45:25.763Z,100185.75
2024-02-04T08:47:51.520Z,100196.00
2024-02-04T08:50:17.342Z,100188.41
2024-02-04T08:52:43.066Z,100196.50
2024-02-04T08:55:10.345Z,100182.72
2024-02-04T08:57:36.342Z,100179.22
2024-02-04T09:00:02.092Z,100173.75
2024-02-04T09:02:27.772Z,100170.44
2024-02-04T09:04:54.247Z,100185.25
2024-02-04T09:07:20.214Z,100186.03
2024-02-04T09:09:50.558Z,100185.25
2024-02-04T09:12:16.355Z,100181.88
2024-02-04T09:14:42.095Z,100180.31
2024-02-04T09:17:07.974Z,100179.47
2024-02-04T09:19:34.212Z,100180.94
2024-02-04T09:22:02.747Z,100162.81
2024-02-04T09:24:29.549Z,100159.38
2024-02-04T09:26:55.523Z,100159.75
2024-02-04T09:29:21.535Z,100151.94
2024-02-04T09:31:47.335Z,100148.91
2024-02-04T09:34:13.500Z,100155.06
2024-02-04T09:36:39.717Z,100150.19
2024-02-04T09:39:05.816Z,100151.72
2024-02-04T09:41:31.597Z,100146.69
2024-02-04T09:43:58.974Z,100147.09
2024-02-04T09:46:24.991Z,100143.56
2024-02-04T09:48:53.487Z,100143.25
2024-02-04T09:51:19.698Z,100143.91
2024-02-04T09:53:46.664Z,100137.75
2024-02-04T09:56:15.804Z,100128.22
2024-02-04T09:58:42.947Z,100118.91
2024-02-04T10:01:10.438Z,100112.16
2024-02-04T10:03:36.495Z,100113.59
2024-02-04T10:06:02.497Z,100113.31
2024-02-04T10:08:28.861Z,100120.22
2024-02-04T10:10:56.155Z,100112.44
2024-02-04T10:13:22.846Z,100106.97
2024-02-04T10:15:49.943Z,100105.69
2024-02-04T10:18:15.928Z,100106.13
2024-02-04T10:20:41.656Z,100116.25
2024-02-04T10:23:07.341Z,100115.50
2024-02-04T10:25:33.321Z,100112.75
2024-02-04T10:27:59.572Z,100105.47
2024-02-04T10:30:25.536Z,100111.69
2024-02-04T10:32:55.250Z,100100.81
2024-02-04T10:35:24.738Z,100115.16
2024-02-04T10:37:54.017Z,100112.75
2024-02-04T10:40:20.294Z,100099.84
2024-02-04T10:42:50.088Z,100107.94
2024-02-04T10:45:19.241Z,100091.88
2024-02-04T10:47:51.898Z,100088.25
2024-02-04T10:50:17.959Z,100084.41
2024-02-04T10:52:47.708Z,100095.53
2024-02-04T10:55:14.388Z,100109.44
2024-02-04T10:57:41.368Z,100092.22
2024-02-04T11:00:12.464Z,100089.44
2024-02-04T11:02:39.695Z,100076.53
2024-02-04T11:05:06.838Z,100078.84
2024-02-04T11:07:36.000Z,100087.84
2024-02-04T11:10:02.800Z,100081.38
2024-02-04T11:12:30.696Z,100064.44
2024-02-04T11:15:01.286Z,100056.78
2024-02-04T11:17:29.739Z,100064.59
2024-02-04T11:20:10.591Z,100063.72
2024-02-04T11:22:56.895Z,100075.88
2024-02-04T11:25:44.546Z,100072.88
2024-02-04T11:28:13.004Z,100080.22
2024-02-04T11:30:39.473Z,100084.75
2024-02-04T11:33:06.490Z,100077.13
2024-02-04T11:35:34.324Z,100075.19
2024-02-04T11:38:01.556Z,100078.00
2024-02-04T11:40:41.035Z,100089.59
2024-02-04T11:43:08.734Z,100081.03
2024-02-04T11:45:39.884Z,100084.94
2024-02-04T11:48:08.370Z,100085.44
2024-02-04T11:50:34.640Z,100086.78
2024-02-04T11:53:11.122Z,100076.50
2024-02-04T11:55:40.217Z,100080.03
2024-02-04T11:58:08.794Z,100084.88
2024-02-04T12:00:37.788Z,100082.47
2024-02-04T12:03:07.932Z,100089.53
2024-02-04T12:05:35.584Z,100089.03
2024-02-04T12:08:09.169Z,100081.38
2024-02-04T12:10:39.009Z,100088.47
2024-02-04T12:13:06.456Z,100079.75
2024-02-04T12:25:40.495Z,100065.06
2024-02-04T12:28:09.677Z,100061.97
2024-02-04T12:30:35.481Z,100062.31
2024-02-04T12:33:03.085Z,100062.03
2024-02-04T12:35:29.911Z,100060.16
2024-02-04T12:37:58.245Z,100058.16
2024-02-04T12:40:30.466Z,100041.38
2024-02-04T12:43:06.310Z,100046.91
2024-02-04T12:45:33.159Z,100039.94
2024-02-04T12:47:59.606Z,100032.44
2024-02-04T13:01:14.734Z,100039.88
2024-02-04T13:03:40.623Z,100036.59
2024-02-04T13:06:07.021Z,100033.22
2024-02-04T13:08:32.797Z,100026.69
2024-02-04T13:10:59.298Z,100029.00
2024-02-04T13:13:29.887Z,100033.38
2024-02-04T13:15:55.962Z,100026.75
2024-02-04T13:18:21.851Z,100025.25
2024-02-04T13:20:47.620Z,100031.78
2024-02-04T13:23:13.398Z,100029.63
2024-02-04T13:25:39.344Z,100034.81
2024-02-04T13:28:05.959Z,100030.56
2024-02-04T13:30:32.188Z,100017.75
2024-02-04T13:32:58.911Z,100008.38
2024-02-04T13:35:25.416Z,100016.53
2024-02-04T13:37:53.420Z,100014.47
2024-02-04T13:40:20.717Z,100016.31
2024-02-04T13:42:47.037Z,100031.09
2024-02-04T13:45:17.407Z,100009.72
2024-02-04T13:47:43.806Z,100022.41
2024-02-04T13:50:11.748Z,100016.81
2024-02-04T13:52:38.503Z,100024.16
2024-02-04T13:55:11.182Z,100029.63
2024-02-04T13:57:37.455Z,100031.28
2024-02-04T14:00:06.310Z,100033.66
2024-02-04T14:02:33.149Z,100023.31
2024-02-04T14:04:59.256Z,100038.50
2024-02-04T14:07:26.875Z,100045.59
2024-02-04T14:09:52.706Z,100036.59
2024-02-04T14:12:18.965Z,100040.47
2024-02-04T14:14:44.973Z,100024.53
2024-02-04T14:17:10.992Z,100042.47
2024-02-04T14:19:37.105Z,100048.31
2024-02-04T14:22:02.973Z,100039.84
2024-02-04T14:24:28.725Z,100042.34
2024-02-04T14:26:59.365Z,100036.25
2024-02-04T14:29:25.404Z,100034.66
2024-02-04T14:31:51.226Z,100038.88
2024-02-04T14:34:16.996Z,100042.59
2024-02-04T14:36:42.982Z,100055.00
2024-02-04T14:39:09.699Z,100043.13
2024-02-04T14:41:38.799Z,100039.47
2024-02-04T14:44:04.718Z,100040.22
2024-02-04T14:46:30.474Z,100027.59
2024-02-04T14:48:56.349Z,100036.19
2024-02-04T14:51:22.162Z,100040.41
2024-02-04T14:53:47.832Z,100038.50
2024-02-04T14:56:13.561Z,100047.88
2024-02-04T14:58:39.315Z,100048.09
2024-02-04T15:01:05.512Z,100056.53
2024-02-04T15:03:32.532Z,100050.59
2024-02-04T15:05:58.389Z,100047.69
2024-02-04T15:08:24.366Z,100044.78
2024-02-04T15:10:50.090Z,100045.63
2024-02-04T15:13:16.715Z,100040.59
2024-02-04T15:15:42.670Z,100054.63
2024-02-04T15:18:09.061Z,100047.97
2024-02-04T15:20:35.353Z,100049.78
2024-02-04T15:23:02.189Z,100054.69
2024-02-04T15:25:28.435Z,100052.59
2024-02-04T15:27:56.467Z,100059.75
2024-02-04T15:30:22.654Z,100056.84
2024-02-04T15:32:48.643Z,100061.44
2024-02-04T15:35:15.266Z,100071.31
2024-02-04T15:37:41.175Z,100080.41
2024-02-04T15:40:07.476Z,100083.19
2024-02-04T15:42:33.329Z,100080.41
2024-02-04T15:44:59.085Z,100075.22
2024-02-04T15:47:26.978Z,100079.13
2024-02-04T15:49:53.084Z,100081.56
2024-02-04T15:52:19.506Z,100089.81
2024-02-04T15:54:45.525Z,100095.94
2024-02-04T15:57:13.364Z,100101.13
2024-02-04T16:00:02.267Z,100090.22
2024-02-04T16:02:28.890Z,100093.78
2024-02-04T16:04:55.099Z,100097.03
2024-02-04T16:07:23.597Z,100113.91
2024-02-04T16:09:51.072Z,100123.66
2024-02-04T16:12:21.352Z,100114.75
2024-02-04T16:14:49.534Z,100123.19
2024-02-04T16:17:18.477Z,100124.63
2024-02-04T16:19:50.064Z,100136.47
2024-02-04T16:22:17.518Z,100133.19
2024-02-04T16:24:43.859Z,100136.28
2024-02-04T16:27:10.182Z,100138.22
2024-02-04T16:29:37.079Z,100146.75
2024-02-04T16:32:05.885Z,100146.91
2024-02-04T16:34:34.926Z,100138.09
2024-02-04T16:37:03.412Z,100139.84
2024-02-04T16:39:30.125Z,100131.41
2024-02-04T16:41:55.889Z,100116.31
2024-02-04T16:44:21.633Z,100120.78
2024-02-04T16:46:47.305Z,100107.53
2024-02-04T16:49:17.302Z,100120.28
2024-02-04T16:51:45.776Z,100117.38
2024-02-04T16:54:11.710Z,100112.50
2024-02-04T16:56:40.252Z,100121.06
2024-02-04T16:59:06.733Z,100125.94
2024-02-04T17:01:33.369Z,100128.53
2024-02-04T17:04:00.336Z,100125.44
2024-02-04T17:06:26.965Z,100122.84
2024-02-04T17:08:53.534Z,100121.34
2024-02-04T17:11:19.517Z,100118.47
2024-02-04T17:13:47.760Z,100120.25
2024-02-04T17:16:36.689Z,100112.78
2024-02-04T17:19:22.621Z,100108.88
2024-02-04T17:21:51.516Z,100118.75
2024-02-04T17:24:28.775Z,100121.53
2024-02-04T17:26:56.934Z,100111.94
2024-02-04T17:29:24.020Z,100112.13
2024-02-04T17:31:50.695Z,100120.25
2024-02-04T17:34:16.792Z,100122.00
2024-02-04T17:36:42.679Z,100115.19
2024-02-04T17:39:08.727Z,100122.31
2024-02-04T17:41:34.591Z,100117.75
2024-02-04T17:44:00.745Z,100116.13
2024-02-04T17:46:26.546Z,100117.75
2024-02-04T17:48:52.514Z,100113.88
2024-02-04T17:51:18.603Z,100109.81
2024-02-04T17:53:44.752Z,100101.69
2024-02-04T17:56:17.411Z,100098.75
2024-02-04T17:58:43.127Z,100103.72
2024-02-04T18:01:08.910Z,100112.78
2024-02-04T18:03:35.725Z,100113.56
2024-02-04T18:06:01.738Z,100104.25
2024-02-04T18:08:29.399Z,100101.84
2024-02-04T18:10:55.485Z,100106.84
2024-02-04T18:13:21.409Z,100102.41
2024-02-04T18:15:47.280Z,100106.06
2024-02-04T18:18:14.128Z,100110.03
2024-02-04T18:20:40.068Z,100104.56
2024-02-04T18:23:05.780Z,100104.72
2024-02-04T18:25:31.505Z,100105.47
2024-02-04T18:27:57.363Z,100109.56
2024-02-04T18:30:24.845Z,100100.97
2024-02-04T18:32:50.744Z,100113.84
2024-02-04T18:35:16.557Z,100113.84
2024-02-04T18:37:42.291Z,100125.84
2024-02-04T18:40:08.822Z,100127.22
2024-02-04T18:42:35.243Z,100133.28
2024-02-04T18:45:01.021Z,100141.72
2024-02-04T18:47:26.749Z,100137.69
2024-02-04T18:49:55.723Z,100135.38
2024-02-04T18:52:22.274Z,100142.34
2024-02-04T18:54:48.199Z,100142.19
2024-02-04T18:57:14.288Z,100139.44
2024-02-04T18:59:40.314Z,100143.81
2024-02-04T19:02:07.652Z,100138.56
2024-02-04T19:04:33.614Z,100139.31
2024-02-04T19:07:01.249Z,100147.25
2024-02-04T19:09:27.888Z,100142.31
2024-02-04T19:11:53.693Z,100144.38
2024-02-04T19:14:21.386Z,100140.47
2024-02-04T19:16:47.121Z,100133.53
2024-02-04T19:19:13.930Z,100137.75
2024-02-04T19:21:44.579Z,100147.13
2024-02-04T19:24:10.305Z,100143.59
2024-02-04T19:26:36.027Z,100137.06
2024-02-04T19:29:01.846Z,100135.28
2024-02-04T19:31:27.924Z,100132.94
2024-02-04T19:33:53.762Z,100133.78
2024-02-04T19:36:20.286Z,100128.91
2024-02-04T19:38:45.958Z,100129.84
2024-02-04T19:41:11.959Z,100125.34
2024-02-04T19:43:37.745Z,100114.84
2024-02-04T19:46:05.645Z,100124.38
2024-02-04T19:48:31.398Z,100118.97
2024-02-04T19:50:57.113Z,100110.97
2024-02-04T19:53:22.976Z,100113.28
2024-02-04T19:55:48.788Z,100110.84
2024-02-04T19:58:15.519Z,100116.81
2024-02-04T20:00:41.592Z,100116.97
2024-02-04T20:03:07.760Z,100115.47
2024-02-04T20:05:33.932Z,100115.94
2024-02-04T20:07:59.813Z,100111.84
2024-02-04T20:10:25.658Z,100114.03
2024-02-04T20:12:52.564Z,100116.88
2024-02-04T20:15:27.104Z,100116.34
2024-02-04T20:17:56.755Z,100103.13
2024-02-04T20:20:23.901Z,100105.72
2024-02-04T20:22:57.503Z,100106.00
2024-02-04T20:25:29.894Z,100101.50
2024-02-04T20:27:56.947Z,100104.38
2024-02-04T20:30:26.189Z,100104.97
2024-02-04T20:32:52.326Z,100111.63
2024-02-04T20:35:18.205Z,100109.03
2024-02-04T20:37:43.971Z,100112.56
2024-02-04T20:40:11.098Z,100106.72
2024-02-04T20:42:36.901Z,100096.22
2024-02-04T20:45:02.659Z,100099.47
2024-02-04T20:47:28.496Z,100100.97
2024-02-04T20:49:54.413Z,100109.53
2024-02-04T20:52:20.351Z,100103.03
2024-02-04T20:54:46.692Z,100102.38
2024-02-04T20:57:12.764Z,100100.16
2024-02-04T20:59:38.487Z,100092.38
2024-02-04T21:02:04.457Z,100100.81
2024-02-04T21:04:30.429Z,100099.47
2024-02-04T21:06:56.348Z,100092.84
2024-02-04T21:09:22.073Z,100098.59
2024-02-04T21:11:47.953Z,100090.97
2024-02-04T21:14:14.097Z,100093.03
2024-02-04T21:16:39.905Z,100084.31
2024-02-04T21:19:07.484Z,100082.56
2024-02-04T21:21:33.326Z,100076.72
2024-02-04T21:24:01.778Z,100078.63
2024-02-04T21:26:27.912Z,100085.72
2024-02-04T21:28:53.712Z,100082.44
2024-02-04T21:31:19.582Z,100087.13
2024-02-04T21:33:45.586Z,100089.69
2024-02-04T21:36:12.377Z,100092.41
2024-02-04T21:38:41.122Z,100097.06
2024-02-04T21:41:06.923Z,100093.81
2024-02-04T21:43:32.858Z,100093.31
2024-02-04T21:45:58.667Z,100094.16
2024-02-04T21:48:24.957Z,100092.28
2024-02-04T21:50:51.099Z,100100.31
2024-02-04T21:53:17.170Z,100096.88
2024-02-04T21:55:47.866Z,100102.06
2024-02-04T21:58:13.985Z,100100.72
2024-02-04T22:00:42.279Z,100101.25
2024-02-04T22:03:09.549Z,100104.00
2024-02-04T22:05:37.729Z,100113.50
2024-02-04T22:08:03.763Z,100094.75
2024-02-04T22:10:29.485Z,100093.00
2024-02-04T22:12:55.328Z,100092.88
2024-02-04T22:15:21.878Z,100092.19
2024-02-04T22:17:47.745Z,100085.53
2024-02-04T22:20:14.858Z,100087.47
2024-02-04T22:22:41.213Z,100093.44
2024-02-04T22:25:09.083Z,100087.19
2024-02-04T22:27:36.094Z,100092.91
2024-02-04T22:30:04.058Z,100087.06
2024-02-04T22:32:31.008Z,100093.31
2024-02-04T22:34:56.790Z,100086.28
2024-02-04T22:37:22.638Z,100087.63
2024-02-04T22:39:48.703Z,100081.53
2024-02-04T22:42:14.833Z,100078.41
2024-02-04T22:44:40.585Z,100067.25
2024-02-04T22:47:06.462Z,100077.47
2024-02-04T22:49:32.476Z,100071.03
2024-02-04T22:51:58.296Z,100073.94
2024-02-04T22:54:24.007Z,100075.84
2024-02-04T22:56:49.754Z,100071.03
2024-02-04T22:59:16.067Z,100068.75
2024-02-04T23:01:41.874Z,100081.53
2024-02-04T23:04:08.467Z,100063.84
2024-02-04T23:06:34.465Z,100056.53
2024-02-04T23:09:00.310Z,100057.47
2024-02-04T23:11:26.341Z,100050.84
2024-02-04T23:13:52.194Z,100054.91
2024-02-04T23:16:21.293Z,100048.13
2024-02-04T23:18:47.682Z,100048.66
2024-02-04T23:21:13.887Z,100048.66
2024-02-04T23:23:39.763Z,100053.56
2024-02-04T23:26:05.506Z,100056.81
2024-02-04T23:28:31.304Z,100046.63
2024-02-04T23:30:57.069Z,100052.03
2024-02-04T23:33:24.220Z,100044.84
2024-02-04T23:35:49.993Z,100045.78
2024-02-04T23:38:15.756Z,100039.69
2024-02-04T23:40:42.011Z,100037.09
2024-02-04T23:43:07.803Z,100034.09
2024-02-04T23:45:33.951Z,100039.69
2024-02-04T23:47:59.827Z,100036.44
2024-02-04T23:50:25.610Z,100025.84
2024-02-04T23:52:52.231Z,100030.72
2024-02-04T23:55:20.917Z,100020.41
2024-02-04T23:57:47.027Z,100019.19
